Time,TemperatureF,DewpointF,PressureIn,WindDirection,WindDirectionDegrees,WindSpeedMPH,WindSpeedGustMPH,Humidity,HourlyPrecipIn,Conditions,Clouds,dailyrainin,SoftwareType,DateUTC
2013-09-01 00:01:00,78.1,74.5,30.01,NE,45,6.0,-999.0,89,-99.99,,,-99.99,meteohub,2013-09-01 04:01:00,
2013-09-01 00:02:00,78.1,74.5,30.01,NE,45,1.0,-999.0,89,-99.99,,,-99.99,meteohub,2013-09-01 04:02:00,
2013-09-01 00:03:00,78.1,74.5,30.01,NE,45,4.0,-999.0,89,-99.99,,,-99.99,meteohub,2013-09-01 04:03:00,
2013-09-01 00:04:00,78.1,74.5,30.01,NE,45,7.0,-999.0,89,-99.99,,,-99.99,meteohub,2013-09-01 04:04:00,
2013-09-01 00:09:00,78.1,74.5,30.01,NE,45,3.0,-999.0,89,-99.99,,,-99.99,meteohub,2013-09-01 04:09:00,
2013-09-01 00:13:00,78.1,74.5,30.01,NE,45,5.0,-999.0,89,-99.99,,,-99.99,meteohub,2013-09-01 04:13:00,
2013-09-01 00:18:00,78.1,74.5,30.01,NE,45,3.0,-999.0,89,-99.99,,,-99.99,meteohub,2013-09-01 04:18:00,
2013-09-01 00:23:00,78.1,74.5,30.00,NE,45,6.0,-999.0,89,-99.99,,,-99.99,meteohub,2013-09-01 04:23:00,
2013-09-01 00:28:00,78.1,76.5,30.00,NE,45,6.0,-999.0,95,-99.99,,,-99.99,meteohub,2013-09-01 04:28:00,
2013-09-01 00:33:00,78.1,74.5,30.00,NE,45,5.0,-999.0,89,-99.99,,,-99.99,meteohub,2013-09-01 04:33:00,
2013-09-01 00:38:00,78.1,74.8,30.00,NE,45,6.0,-999.0,90,-99.99,,,-99.99,meteohub,2013-09-01 04:38:00,
2013-09-01 00:43:00,78.1,74.8,30.00,NE,45,3.0,-999.0,90,-99.99,,,-99.99,meteohub,2013-09-01 04:43:00,
2013-09-01 00:49:00,77.0,75.4,30.00,NE,45,7.0,-999.0,95,-99.99,,,-99.99,meteohub,2013-09-01 04:49:00,
2013-09-01 00:54:00,78.1,74.8,30.00,NE,45,5.0,-999.0,90,-99.99,,,-99.99,meteohub,2013-09-01 04:54:00,
2013-09-01 00:59:00,78.1,74.8,30.00,NE,45,2.0,-999.0,90,-99.99,,,-99.99,meteohub,2013-09-01 04:59:00,
2013-09-01 01:04:00,78.1,74.8,30.01,NE,45,1.0,-999.0,90,-99.99,,,-99.99,meteohub,2013-09-01 05:04:00,
2013-09-01 01:09:00,78.1,74.8,30.01,NE,45,5.0,-999.0,90,-99.99,,,-99.99,meteohub,2013-09-01 05:09:00,
2013-09-01 01:14:00,78.1,74.8,30.01,NE,45,3.0,-999.0,90,-99.99,,,-99.99,meteohub,2013-09-01 05:14:00,
2013-09-01 01:19:00,78.1,75.6,30.01,NE,45,7.0,-999.0,92,-99.99,,,-99.99,meteohub,2013-09-01 05:19:00,
2013-09-01 01:24:00,78.1,75.2,30.01,NE,45,4.0,-999.0,91,-99.99,,,-99.99,meteohub,2013-09-01 05:24:00,
2013-09-01 01:29:00,78.1,75.6,30.01,NE,45,2.0,-999.0,92,-99.99,,,-99.99,meteohub,2013-09-01 05:29:00,
2013-09-01 01:35:00,77.0,74.5,30.00,NE,45,2.0,-999.0,92,-99.99,,,-99.99,meteohub,2013-09-01 05:35:00,
2013-09-01 01:40:00,78.1,75.6,30.00,NE,45,4.0,-999.0,92,-99.99,,,-99.99,meteohub,2013-09-01 05:40:00,
2013-09-01 01:45:00,77.0,76.1,30.00,NE,45,5.0,-999.0,97,-99.99,,,-99.99,meteohub,2013-09-01 05:45:00,
2013-09-01 01:50:00,78.1,75.6,30.00,NE,45,3.0,-999.0,92,-99.99,,,-99.99,meteohub,2013-09-01 05:50:00,
2013-09-01 01:55:00,78.1,75.6,30.00,NE,45,3.0,-999.0,92,-99.99,,,-99.99,meteohub,2013-09-01 05:55:00,
2013-09-01 02:00:00,78.1,75.6,30.00,NE,45,1.0,-999.0,92,-99.99,,,-99.99,meteohub,2013-09-01 06:00:00,
2013-09-01 02:05:00,78.1,75.6,30.00,NE,45,5.0,-999.0,92,-99.99,,,-99.99,meteohub,2013-09-01 06:05:00,
2013-09-01 02:10:00,78.1,75.6,29.99,NE,45,4.0,-999.0,92,-99.99,,,-99.99,meteohub,2013-09-01 06:10:00,
2013-09-01 02:16:00,77.0,74.5,29.99,NE,45,2.0,-999.0,92,-99.99,,,-99.99,meteohub,2013-09-01 06:16:00,
2013-09-01 02:21:00,77.0,74.5,29.99,NE,45,7.0,-999.0,92,-99.99,,,-99.99,meteohub,2013-09-01 06:21:00,
2013-09-01 02:26:00,78.1,75.6,29.99,NE,45,7.0,-999.0,92,-99.99,,,-99.99,meteohub,2013-09-01 06:26:00,
2013-09-01 02:31:00,78.1,75.9,29.98,NE,45,3.0,-999.0,93,-99.99,,,-99.99,meteohub,2013-09-01 06:31:00,
2013-09-01 02:36:00,78.1,75.9,29.98,SE,135,9.0,-999.0,93,-99.99,,,-99.99,meteohub,2013-09-01 06:36:00,
2013-09-01 02:41:00,77.0,76.5,29.98,SE,135,6.0,-999.0,98,-99.99,,,-99.99,meteohub,2013-09-01 06:41:00,
2013-09-01 02:46:00,78.1,75.9,29.98,SE,135,8.0,-999.0,93,-99.99,,,-99.99,meteohub,2013-09-01 06:46:00,
2013-09-01 02:51:00,78.1,75.9,29.98,NE,45,5.0,-999.0,93,-99.99,,,-99.99,meteohub,2013-09-01 06:51:00,
2013-09-01 02:56:00,78.1,75.6,29.98,NE,45,7.0,-999.0,92,-99.99,,,-99.99,meteohub,2013-09-01 06:56:00,
2013-09-01 03:01:00,77.0,76.5,29.96,NE,45,9.0,-999.0,98,-99.99,,,-99.99,meteohub,2013-09-01 07:01:00,
2013-09-01 03:06:00,78.1,75.6,29.96,NE,45,9.0,-999.0,92,-99.99,,,-99.99,meteohub,2013-09-01 07:06:00,
2013-09-01 03:12:00,78.1,75.6,29.96,NE,45,6.0,-999.0,92,-99.99,,,-99.99,meteohub,2013-09-01 07:12:00,
2013-09-01 03:17:00,78.1,75.6,29.96,NE,45,2.0,-999.0,92,-99.99,,,-99.99,meteohub,2013-09-01 07:17:00,
2013-09-01 03:22:00,78.1,75.6,29.96,NE,45,4.0,-999.0,92,-99.99,,,-99.99,meteohub,2013-09-01 07:22:00,
2013-09-01 03:27:00,78.1,75.6,29.96,NE,45,3.0,-999.0,92,-99.99,,,-99.99,meteohub,2013-09-01 07:27:00,
2013-09-01 03:32:00,78.1,75.6,29.96,NE,45,0.0,-999.0,92,-99.99,,,-99.99,meteohub,2013-09-01 07:32:00,
2013-09-01 03:37:00,77.0,76.1,29.98,NE,45,1.0,-999.0,97,-99.99,,,-99.99,meteohub,2013-09-01 07:37:00,
2013-09-01 03:42:00,78.1,75.6,29.98,NE,45,1.0,-999.0,92,-99.99,,,-99.99,meteohub,2013-09-01 07:42:00,
2013-09-01 03:47:00,78.1,75.6,29.99,NE,45,0.0,-999.0,92,-99.99,,,-99.99,meteohub,2013-09-01 07:47:00,
2013-09-01 03:52:00,78.1,75.6,29.98,NE,45,3.0,-999.0,92,-99.99,,,-99.99,meteohub,2013-09-01 07:52:00,
2013-09-01 03:57:00,78.1,75.6,29.98,NE,45,6.0,-999.0,92,-99.99,,,-99.99,meteohub,2013-09-01 07:57:00,
2013-09-01 04:02:00,78.1,75.6,29.98,NE,45,2.0,-999.0,92,-99.99,,,-99.99,meteohub,2013-09-01 08:02:00,
2013-09-01 04:07:00,78.1,75.2,29.96,NE,45,6.0,-999.0,91,-99.99,,,-99.99,meteohub,2013-09-01 08:07:00,
2013-09-01 04:12:00,77.0,76.1,29.96,NE,45,2.0,-999.0,97,-99.99,,,-99.99,meteohub,2013-09-01 08:12:00,
2013-09-01 04:17:00,78.1,75.6,29.96,NE,45,7.0,-999.0,92,-99.99,,,-99.99,meteohub,2013-09-01 08:17:00,
2013-09-01 04:22:00,78.1,75.6,29.96,NE,45,5.0,-999.0,92,-99.99,,,-99.99,meteohub,2013-09-01 08:22:00,
2013-09-01 04:27:00,78.1,75.6,29.96,NE,45,2.0,-999.0,92,-99.99,,,-99.99,meteohub,2013-09-01 08:27:00,
2013-09-01 04:32:00,78.1,75.6,29.96,NE,45,2.0,-999.0,92,-99.99,,,-99.99,meteohub,2013-09-01 08:32:00,
2013-09-01 04:37:00,78.1,75.6,29.96,NE,45,1.0,-999.0,92,-99.99,,,-99.99,meteohub,2013-09-01 08:37:00,
2013-09-01 04:42:00,78.1,75.9,29.96,NE,45,3.0,-999.0,93,-99.99,,,-99.99,meteohub,2013-09-01 08:42:00,
2013-09-01 04:47:00,77.0,76.5,29.96,NE,45,3.0,-999.0,98,-99.99,,,-99.99,meteohub,2013-09-01 08:47:00,
2013-09-01 04:52:00,78.1,75.9,29.96,SE,135,7.0,-999.0,93,-99.99,,,-99.99,meteohub,2013-09-01 08:52:00,
2013-09-01 04:57:00,78.1,75.6,29.98,SE,135,6.0,-999.0,92,-99.99,,,-99.99,meteohub,2013-09-01 08:57:00,
2013-09-01 05:02:00,78.1,76.3,29.96,SE,135,7.0,-999.0,94,-99.99,,,-99.99,meteohub,2013-09-01 09:02:00,
2013-09-01 05:07:00,77.0,74.8,29.96,SSW,202,5.0,-999.0,93,-99.99,,,-99.99,meteohub,2013-09-01 09:07:00,
2013-09-01 05:12:00,75.9,73.8,29.96,SE,135,8.0,-999.0,93,-99.99,,,-99.99,meteohub,2013-09-01 09:12:00,
2013-09-01 05:17:00,75.9,73.4,29.98,SE,135,6.0,-999.0,92,-99.99,,,-99.99,meteohub,2013-09-01 09:17:00,
2013-09-01 05:22:00,75.0,74.1,29.96,South,180,4.0,-999.0,97,-99.99,,,-99.99,meteohub,2013-09-01 09:22:00,
2013-09-01 05:27:00,75.9,73.4,29.96,SSW,202,2.0,-999.0,92,-99.99,,,-99.99,meteohub,2013-09-01 09:27:00,
2013-09-01 05:32:00,75.9,73.4,29.96,South,180,3.0,-999.0,92,-99.99,,,-99.99,meteohub,2013-09-01 09:32:00,
2013-09-01 05:37:00,77.0,74.8,29.98,SE,135,6.0,-999.0,93,-99.99,,,-99.99,meteohub,2013-09-01 09:37:00,
2013-09-01 05:42:00,77.0,73.2,29.98,SSE,157,9.0,-999.0,88,-99.99,,,-99.99,meteohub,2013-09-01 09:42:00,
2013-09-01 05:47:00,77.0,73.2,29.96,SE,135,10.0,-999.0,88,-99.99,,,-99.99,meteohub,2013-09-01 09:47:00,
2013-09-01 05:52:00,77.0,72.9,29.98,SE,135,8.0,-999.0,87,-99.99,,,-99.99,meteohub,2013-09-01 09:52:00,
2013-09-01 05:57:00,75.9,73.8,29.98,SE,135,6.0,-999.0,93,-99.99,,,-99.99,meteohub,2013-09-01 09:57:00,
2013-09-01 06:02:00,77.0,73.2,29.98,NE,45,10.0,-999.0,88,-99.99,,,-99.99,meteohub,2013-09-01 10:02:00,
2013-09-01 06:07:00,77.0,73.8,29.98,NE,45,4.0,-999.0,90,-99.99,,,-99.99,meteohub,2013-09-01 10:07:00,
2013-09-01 06:12:00,75.9,73.0,29.98,NE,45,3.0,-999.0,91,-99.99,,,-99.99,meteohub,2013-09-01 10:12:00,
2013-09-01 06:17:00,77.0,74.5,29.98,NE,45,6.0,-999.0,92,-99.99,,,-99.99,meteohub,2013-09-01 10:17:00,
2013-09-01 06:22:00,77.0,74.5,29.98,SE,135,2.0,-999.0,92,-99.99,,,-99.99,meteohub,2013-09-01 10:22:00,
2013-09-01 06:27:00,77.0,74.8,29.98,SE,135,5.0,-999.0,93,-99.99,,,-99.99,meteohub,2013-09-01 10:27:00,
2013-09-01 06:32:00,77.0,76.5,29.98,SE,135,4.0,-999.0,98,-99.99,,,-99.99,meteohub,2013-09-01 10:32:00,
2013-09-01 06:37:00,78.1,75.6,29.98,SE,135,5.0,-999.0,92,-99.99,,,-99.99,meteohub,2013-09-01 10:37:00,
2013-09-01 06:42:00,78.1,74.8,29.99,SE,135,5.0,-999.0,90,-99.99,,,-99.99,meteohub,2013-09-01 10:42:00,
2013-09-01 06:47:00,78.1,74.8,29.99,NE,45,9.0,-999.0,90,-99.99,,,-99.99,meteohub,2013-09-01 10:47:00,
2013-09-01 06:52:00,78.1,75.2,29.99,NE,45,7.0,-999.0,91,-99.99,,,-99.99,meteohub,2013-09-01 10:52:00,
2013-09-01 06:57:00,78.1,75.2,29.99,NE,45,6.0,-999.0,91,-99.99,,,-99.99,meteohub,2013-09-01 10:57:00,
2013-09-01 07:02:00,78.1,75.2,29.98,NE,45,5.0,-999.0,91,-99.99,,,-99.99,meteohub,2013-09-01 11:02:00,
2013-09-01 07:07:00,77.0,76.1,29.98,NE,45,6.0,-999.0,97,-99.99,,,-99.99,meteohub,2013-09-01 11:07:00,
2013-09-01 07:12:00,78.1,75.6,29.98,NE,45,2.0,-999.0,92,-99.99,,,-99.99,meteohub,2013-09-01 11:12:00,
2013-09-01 07:17:00,78.1,75.6,29.98,NE,45,2.0,-999.0,92,-99.99,,,-99.99,meteohub,2013-09-01 11:17:00,
2013-09-01 07:22:00,78.1,75.6,29.98,NE,45,2.0,-999.0,92,-99.99,,,-99.99,meteohub,2013-09-01 11:22:00,
2013-09-01 07:27:00,78.1,75.9,29.98,NE,45,4.0,-999.0,93,-99.99,,,-99.99,meteohub,2013-09-01 11:27:00,
2013-09-01 07:32:00,78.1,75.9,29.98,NE,45,4.0,-999.0,93,-99.99,,,-99.99,meteohub,2013-09-01 11:32:00,
2013-09-01 07:37:00,78.1,75.9,29.96,NE,45,2.0,-999.0,93,-99.99,,,-99.99,meteohub,2013-09-01 11:37:00,
2013-09-01 07:42:00,77.0,76.5,29.96,NE,45,2.0,-999.0,98,-99.99,,,-99.99,meteohub,2013-09-01 11:42:00,
2013-09-01 07:47:00,78.1,75.6,29.96,NE,45,7.0,-999.0,92,-99.99,,,-99.99,meteohub,2013-09-01 11:47:00,
2013-09-01 07:52:00,78.1,75.9,29.98,NE,45,3.0,-999.0,93,-99.99,,,-99.99,meteohub,2013-09-01 11:52:00,
2013-09-01 07:57:00,78.1,75.9,29.98,NE,45,4.0,-999.0,93,-99.99,,,-99.99,meteohub,2013-09-01 11:57:00,
2013-09-01 08:02:00,78.1,75.9,29.98,NE,45,4.0,-999.0,93,-99.99,,,-99.99,meteohub,2013-09-01 12:02:00,
2013-09-01 08:07:00,78.1,75.9,29.98,SE,135,5.0,-999.0,93,-99.99,,,-99.99,meteohub,2013-09-01 12:07:00,
2013-09-01 08:12:00,78.1,75.9,29.98,SE,135,2.0,-999.0,93,-99.99,,,-99.99,meteohub,2013-09-01 12:12:00,
2013-09-01 08:17:00,78.1,77.5,29.99,NE,45,5.0,-999.0,98,-99.99,,,-99.99,meteohub,2013-09-01 12:17:00,
2013-09-01 08:22:00,78.1,75.9,29.99,NE,45,5.0,-999.0,93,-99.99,,,-99.99,meteohub,2013-09-01 12:22:00,
2013-09-01 08:27:00,78.1,75.9,29.99,NE,45,2.0,-999.0,93,-99.99,,,-99.99,meteohub,2013-09-01 12:27:00,
2013-09-01 08:32:00,78.1,75.9,29.99,NE,45,4.0,-999.0,93,-99.99,,,-99.99,meteohub,2013-09-01 12:32:00,
2013-09-01 08:37:00,78.1,75.9,29.99,NE,45,3.0,-999.0,93,-99.99,,,-99.99,meteohub,2013-09-01 12:37:00,
2013-09-01 08:42:00,78.1,75.9,30.00,NE,45,4.0,-999.0,93,-99.99,,,-99.99,meteohub,2013-09-01 12:42:00,
2013-09-01 08:47:00,78.1,76.3,30.00,NE,45,6.0,-999.0,94,-99.99,,,-99.99,meteohub,2013-09-01 12:47:00,
2013-09-01 08:52:00,78.1,77.7,30.00,NE,45,3.0,-999.0,99,-99.99,,,-99.99,meteohub,2013-09-01 12:52:00,
2013-09-01 08:57:00,79.0,76.8,30.00,NE,45,2.0,-999.0,93,-99.99,,,-99.99,meteohub,2013-09-01 12:57:00,
2013-09-01 09:02:00,79.0,76.8,30.00,NE,45,6.0,-999.0,93,-99.99,,,-99.99,meteohub,2013-09-01 13:02:00,
2013-09-01 09:07:00,79.0,76.8,30.00,NE,45,3.0,-999.0,93,-99.99,,,-99.99,meteohub,2013-09-01 13:07:00,
2013-09-01 09:12:00,79.0,76.8,30.00,NE,45,3.0,-999.0,93,-99.99,,,-99.99,meteohub,2013-09-01 13:12:00,
2013-09-01 09:17:00,80.1,77.5,30.00,NE,45,3.0,-999.0,92,-99.99,,,0.00,meteohub,2013-09-01 13:17:00,
2013-09-01 09:22:00,80.1,77.5,30.00,NE,45,4.0,-999.0,92,-99.99,,,0.00,meteohub,2013-09-01 13:22:00,
2013-09-01 09:27:00,80.1,78.4,30.00,SE,135,7.0,-999.0,95,-99.99,,,-99.99,meteohub,2013-09-01 13:27:00,
2013-09-01 09:32:00,81.0,75.4,30.00,NE,45,3.0,-999.0,83,-99.99,,,-99.99,meteohub,2013-09-01 13:32:00,
2013-09-01 09:37:00,81.0,76.6,30.00,NE,45,0.0,-999.0,87,-99.99,,,-99.99,meteohub,2013-09-01 13:37:00,
2013-09-01 09:42:00,82.0,76.3,30.01,NE,45,4.0,-999.0,83,-99.99,,,-99.99,meteohub,2013-09-01 13:42:00,
2013-09-01 09:47:00,82.0,75.6,30.01,SE,135,3.0,-999.0,81,-99.99,,,0.00,meteohub,2013-09-01 13:47:00,
2013-09-01 09:52:00,82.9,75.4,30.01,SE,135,2.0,-999.0,78,-99.99,,,-99.99,meteohub,2013-09-01 13:52:00,
2013-09-01 09:58:00,82.9,73.4,30.01,SE,135,4.0,-999.0,73,-99.99,,,-99.99,meteohub,2013-09-01 13:58:00,
2013-09-01 10:03:00,82.9,73.0,30.01,SE,135,4.0,-999.0,72,-99.99,,,0.00,meteohub,2013-09-01 14:03:00,
2013-09-01 10:08:00,84.0,74.8,30.01,SE,135,4.0,-999.0,74,-99.99,,,-99.99,meteohub,2013-09-01 14:08:00,
2013-09-01 10:13:00,84.0,74.5,30.01,SE,135,3.0,-999.0,73,-99.99,,,-99.99,meteohub,2013-09-01 14:13:00,
2013-09-01 10:18:00,84.0,74.5,30.01,SE,135,6.0,-999.0,73,-99.99,,,0.00,meteohub,2013-09-01 14:18:00,
2013-09-01 10:23:00,82.9,74.7,30.01,SE,135,6.0,-999.0,76,-99.99,,,-99.99,meteohub,2013-09-01 14:23:00,
2013-09-01 10:28:00,82.9,73.8,30.01,SE,135,6.0,-999.0,74,-99.99,,,-99.99,meteohub,2013-09-01 14:28:00,
2013-09-01 10:33:00,82.9,73.8,30.01,SE,135,6.0,-999.0,74,-99.99,,,-99.99,meteohub,2013-09-01 14:33:00,
2013-09-01 10:38:00,82.9,73.4,30.01,SE,135,3.0,-999.0,73,-99.99,,,-99.99,meteohub,2013-09-01 14:38:00,
2013-09-01 10:43:00,84.0,73.9,30.01,SE,135,6.0,-999.0,72,-99.99,,,-99.99,meteohub,2013-09-01 14:43:00,
2013-09-01 10:48:00,82.9,73.4,30.01,SE,135,4.0,-999.0,73,-99.99,,,-99.99,meteohub,2013-09-01 14:48:00,
2013-09-01 10:53:00,84.0,74.5,30.01,SE,135,6.0,-999.0,73,-99.99,,,-99.99,meteohub,2013-09-01 14:53:00,
2013-09-01 10:58:00,84.0,75.2,30.01,SE,135,7.0,-999.0,75,-99.99,,,-99.99,meteohub,2013-09-01 14:58:00,
2013-09-01 11:03:00,84.0,75.2,30.01,SE,135,6.0,-999.0,75,-99.99,,,-99.99,meteohub,2013-09-01 15:03:00,
2013-09-01 11:09:00,84.0,75.2,30.01,SE,135,9.0,-999.0,75,-99.99,,,-99.99,meteohub,2013-09-01 15:09:00,
2013-09-01 11:14:00,84.0,75.2,30.01,SE,135,5.0,-999.0,75,-99.99,,,-99.99,meteohub,2013-09-01 15:14:00,
2013-09-01 11:19:00,84.0,76.1,30.01,SE,135,6.0,-999.0,77,-99.99,,,-99.99,meteohub,2013-09-01 15:19:00,
2013-09-01 11:24:00,84.0,74.5,30.01,SE,135,7.0,-999.0,73,-99.99,,,-99.99,meteohub,2013-09-01 15:24:00,
2013-09-01 11:29:00,84.0,73.9,30.01,SE,135,5.0,-999.0,72,-99.99,,,-99.99,meteohub,2013-09-01 15:29:00,
2013-09-01 11:34:00,84.9,74.5,30.01,NE,45,5.0,-999.0,71,-99.99,,,-99.99,meteohub,2013-09-01 15:34:00,
2013-09-01 11:39:00,84.9,75.2,30.01,South,180,2.0,-999.0,73,-99.99,,,-99.99,meteohub,2013-09-01 15:39:00,
2013-09-01 11:44:00,84.9,74.5,30.03,SW,225,6.0,-999.0,71,-99.99,,,-99.99,meteohub,2013-09-01 15:44:00,
2013-09-01 11:49:00,84.0,73.9,30.04,SW,225,3.0,-999.0,72,-99.99,,,-99.99,meteohub,2013-09-01 15:49:00,
2013-09-01 11:54:00,84.9,76.1,30.04,SSW,202,4.0,-999.0,75,-99.99,,,-99.99,meteohub,2013-09-01 15:54:00,
2013-09-01 11:59:00,84.9,74.5,30.04,SE,135,2.0,-999.0,71,-99.99,,,-99.99,meteohub,2013-09-01 15:59:00,
2013-09-01 12:04:00,84.0,74.5,30.04,SW,225,6.0,-999.0,73,-99.99,,,-99.99,meteohub,2013-09-01 16:04:00,
2013-09-01 12:09:00,84.0,74.8,30.04,SW,225,4.0,-999.0,74,-99.99,,,-99.99,meteohub,2013-09-01 16:09:00,
2013-09-01 12:15:00,84.0,76.1,30.04,SW,225,3.0,-999.0,77,-99.99,,,-99.99,meteohub,2013-09-01 16:15:00,
2013-09-01 12:20:00,84.0,75.2,30.04,SW,225,7.0,-999.0,75,-99.99,,,-99.99,meteohub,2013-09-01 16:20:00,
2013-09-01 12:25:00,84.0,73.9,30.04,SW,225,6.0,-999.0,72,-99.99,,,-99.99,meteohub,2013-09-01 16:25:00,
2013-09-01 12:30:00,84.0,74.5,30.03,SW,225,2.0,-999.0,73,-99.99,,,-99.99,meteohub,2013-09-01 16:30:00,
2013-09-01 12:35:00,84.9,74.8,30.03,SW,225,4.0,-999.0,72,-99.99,,,-99.99,meteohub,2013-09-01 16:35:00,
2013-09-01 12:40:00,84.9,74.1,30.03,South,180,7.0,-999.0,70,-99.99,,,-99.99,meteohub,2013-09-01 16:40:00,
2013-09-01 12:45:00,84.0,73.6,30.03,SW,225,9.0,-999.0,71,-99.99,,,-99.99,meteohub,2013-09-01 16:45:00,
2013-09-01 12:50:00,84.0,73.2,30.03,WSW,247,6.0,-999.0,70,-99.99,,,-99.99,meteohub,2013-09-01 16:50:00,
2013-09-01 12:55:00,84.0,73.2,30.03,SW,225,6.0,-999.0,70,-99.99,,,-99.99,meteohub,2013-09-01 16:55:00,
2013-09-01 13:02:00,84.0,72.3,30.03,SW,225,6.0,-999.0,68,-99.99,,,-99.99,meteohub,2013-09-01 17:02:00,
2013-09-01 13:07:00,84.9,74.1,30.03,SW,225,3.0,-999.0,70,-99.99,,,-99.99,meteohub,2013-09-01 17:07:00,
2013-09-01 13:12:00,84.9,73.2,30.01,SW,225,6.0,-999.0,68,-99.99,,,-99.99,meteohub,2013-09-01 17:12:00,
2013-09-01 13:17:00,84.9,73.2,30.01,West,270,6.0,-999.0,68,-99.99,,,-99.99,meteohub,2013-09-01 17:17:00,
2013-09-01 13:22:00,84.9,73.6,30.01,West,270,9.0,-999.0,69,-99.99,,,-99.99,meteohub,2013-09-01 17:22:00,
2013-09-01 13:27:00,84.0,73.9,30.01,WSW,247,9.0,-999.0,72,-99.99,,,0.00,meteohub,2013-09-01 17:27:00,
2013-09-01 13:32:00,84.0,74.5,30.01,WSW,247,11.0,-999.0,73,-99.99,,,-99.99,meteohub,2013-09-01 17:32:00,
2013-09-01 13:37:00,84.9,74.8,30.01,SW,225,9.0,-999.0,72,-99.99,,,-99.99,meteohub,2013-09-01 17:37:00,
2013-09-01 13:45:00,84.9,74.1,30.01,SW,225,6.0,-999.0,70,-99.99,,,-99.99,meteohub,2013-09-01 17:45:00,
2013-09-01 13:50:00,84.9,73.6,30.01,SW,225,8.0,-999.0,69,-99.99,,,-99.99,meteohub,2013-09-01 17:50:00,
2013-09-01 13:56:00,84.9,74.1,30.01,SW,225,9.0,-999.0,70,-99.99,,,-99.99,meteohub,2013-09-01 17:56:00,
2013-09-01 14:01:00,84.9,74.1,30.01,SW,225,9.0,-999.0,70,-99.99,,,-99.99,meteohub,2013-09-01 18:01:00,
2013-09-01 14:06:00,84.9,74.1,30.01,South,180,10.0,-999.0,70,-99.99,,,-99.99,meteohub,2013-09-01 18:06:00,
2013-09-01 14:12:00,84.9,74.1,30.01,WSW,247,8.0,-999.0,70,-99.99,,,0.00,meteohub,2013-09-01 18:12:00,
2013-09-01 14:20:00,84.9,75.2,30.01,SW,225,9.0,-999.0,73,-99.99,,,-99.99,meteohub,2013-09-01 18:20:00,
2013-09-01 14:25:00,84.9,75.2,30.01,SW,225,11.0,-999.0,73,-99.99,,,-99.99,meteohub,2013-09-01 18:25:00,
2013-09-01 14:32:00,84.9,73.2,30.01,SW,225,9.0,-999.0,68,-99.99,,,-99.99,meteohub,2013-09-01 18:32:00,
2013-09-01 14:37:00,84.0,74.5,30.01,SW,225,10.0,-999.0,73,-99.99,,,-99.99,meteohub,2013-09-01 18:37:00,
2013-09-01 14:42:00,84.9,74.8,30.01,South,180,7.0,-999.0,72,-99.99,,,-99.99,meteohub,2013-09-01 18:42:00,
2013-09-01 14:47:00,84.9,74.1,30.01,SSW,202,7.0,-999.0,70,-99.99,,,-99.99,meteohub,2013-09-01 18:47:00,
2013-09-01 14:52:00,84.9,74.5,30.01,SSW,202,9.0,-999.0,71,-99.99,,,-99.99,meteohub,2013-09-01 18:52:00,
2013-09-01 14:57:00,84.9,74.8,30.01,SSW,202,10.0,-999.0,72,-99.99,,,-99.99,meteohub,2013-09-01 18:57:00,
2013-09-01 15:02:00,84.9,73.6,30.01,SW,225,10.0,-999.0,69,-99.99,,,-99.99,meteohub,2013-09-01 19:02:00,
2013-09-01 15:07:00,84.9,74.8,29.99,SW,225,8.0,-999.0,72,-99.99,,,0.00,meteohub,2013-09-01 19:07:00,
2013-09-01 15:12:00,84.9,75.2,29.99,SSE,157,10.0,-999.0,73,-99.99,,,-99.99,meteohub,2013-09-01 19:12:00,
2013-09-01 15:17:00,84.9,75.2,29.99,South,180,7.0,-999.0,73,-99.99,,,-99.99,meteohub,2013-09-01 19:17:00,
2013-09-01 15:22:00,84.9,74.8,29.99,SSW,202,7.0,-999.0,72,-99.99,,,-99.99,meteohub,2013-09-01 19:22:00,
2013-09-01 15:27:00,84.0,74.5,29.99,South,180,7.0,-999.0,73,-99.99,,,-99.99,meteohub,2013-09-01 19:27:00,
2013-09-01 15:32:00,84.0,75.2,30.00,SSW,202,10.0,-999.0,75,-99.99,,,-99.99,meteohub,2013-09-01 19:32:00,
2013-09-01 15:37:00,84.0,74.5,30.00,SSW,202,9.0,-999.0,73,-99.99,,,-99.99,meteohub,2013-09-01 19:37:00,
2013-09-01 15:42:00,84.0,74.5,30.00,SSW,202,9.0,-999.0,73,-99.99,,,0.00,meteohub,2013-09-01 19:42:00,
2013-09-01 15:47:00,84.0,75.2,29.99,South,180,10.0,-999.0,75,-99.99,,,-99.99,meteohub,2013-09-01 19:47:00,
2013-09-01 15:52:00,84.0,76.1,29.99,SW,225,7.0,-999.0,77,-99.99,,,-99.99,meteohub,2013-09-01 19:52:00,
2013-09-01 15:57:00,84.0,75.2,29.99,SW,225,12.0,-999.0,75,-99.99,,,0.00,meteohub,2013-09-01 19:57:00,
2013-09-01 16:02:00,84.0,76.1,29.99,SSW,202,12.0,-999.0,77,-99.99,,,-99.99,meteohub,2013-09-01 20:02:00,
2013-09-01 16:07:00,84.0,76.1,29.99,South,180,8.0,-999.0,77,-99.99,,,-99.99,meteohub,2013-09-01 20:07:00,
2013-09-01 16:12:00,82.9,74.7,29.99,SW,225,7.0,-999.0,76,-99.99,,,-99.99,meteohub,2013-09-01 20:12:00,
2013-09-01 16:17:00,82.9,73.8,29.99,SSW,202,9.0,-999.0,74,-99.99,,,-99.99,meteohub,2013-09-01 20:17:00,
2013-09-01 16:22:00,84.0,75.2,29.99,SW,225,10.0,-999.0,75,-99.99,,,-99.99,meteohub,2013-09-01 20:22:00,
2013-09-01 16:27:00,84.0,75.6,30.00,South,180,9.0,-999.0,76,-99.99,,,-99.99,meteohub,2013-09-01 20:27:00,
2013-09-01 16:32:00,84.0,73.6,30.00,SSW,202,9.0,-999.0,71,-99.99,,,-99.99,meteohub,2013-09-01 20:32:00,
2013-09-01 16:37:00,84.0,73.9,29.99,SSW,202,9.0,-999.0,72,-99.99,,,-99.99,meteohub,2013-09-01 20:37:00,
2013-09-01 16:42:00,84.0,73.9,29.99,SSW,202,10.0,-999.0,72,-99.99,,,-99.99,meteohub,2013-09-01 20:42:00,
2013-09-01 16:47:00,84.9,75.2,29.99,South,180,6.0,-999.0,73,-99.99,,,-99.99,meteohub,2013-09-01 20:47:00,
2013-09-01 16:52:00,84.9,74.1,29.99,SE,135,7.0,-999.0,70,-99.99,,,-99.99,meteohub,2013-09-01 20:52:00,
2013-09-01 16:57:00,84.9,72.7,29.99,SSW,202,5.0,-999.0,67,-99.99,,,-99.99,meteohub,2013-09-01 20:57:00,
2013-09-01 17:02:00,86.0,75.0,29.99,SSW,202,9.0,-999.0,70,-99.99,,,-99.99,meteohub,2013-09-01 21:02:00,
2013-09-01 17:07:00,86.0,72.9,29.99,SW,225,6.0,-999.0,65,-99.99,,,0.00,meteohub,2013-09-01 21:07:00,
2013-09-01 17:12:00,86.0,73.8,29.99,SSE,157,1.0,-999.0,67,-99.99,,,-99.99,meteohub,2013-09-01 21:12:00,
2013-09-01 17:17:00,87.1,74.3,29.99,SSW,202,0.0,-999.0,66,-99.99,,,-99.99,meteohub,2013-09-01 21:17:00,
2013-09-01 17:22:00,87.1,72.9,29.99,NE,45,6.0,-999.0,63,-99.99,,,-99.99,meteohub,2013-09-01 21:22:00,
2013-09-01 17:27:00,84.0,73.6,29.99,NE,45,5.0,-999.0,71,-99.99,,,0.00,meteohub,2013-09-01 21:27:00,
2013-09-01 17:32:00,82.0,72.9,29.99,NE,45,10.0,-999.0,74,-99.99,,,-99.99,meteohub,2013-09-01 21:32:00,
2013-09-01 17:37:00,81.0,73.0,30.00,NE,45,5.0,-999.0,77,-99.99,,,0.00,meteohub,2013-09-01 21:37:00,
2013-09-01 17:42:00,81.0,72.7,30.00,NE,45,6.0,-999.0,76,-99.99,,,-99.99,meteohub,2013-09-01 21:42:00,
2013-09-01 17:47:00,82.0,72.9,30.00,NE,45,6.0,-999.0,74,-99.99,,,-99.99,meteohub,2013-09-01 21:47:00,
2013-09-01 17:52:00,81.0,72.7,29.99,NE,45,7.0,-999.0,76,-99.99,,,-99.99,meteohub,2013-09-01 21:52:00,
2013-09-01 17:57:00,82.0,72.9,29.99,NE,45,3.0,-999.0,74,-99.99,,,0.00,meteohub,2013-09-01 21:57:00,
2013-09-01 18:02:00,82.0,70.9,29.99,NE,45,10.0,-999.0,69,-99.99,,,-99.99,meteohub,2013-09-01 22:02:00,
2013-09-01 18:07:00,82.0,70.9,29.99,NE,45,7.0,-999.0,69,-99.99,,,-99.99,meteohub,2013-09-01 22:07:00,
2013-09-01 18:12:00,82.0,72.9,29.99,NE,45,8.0,-999.0,74,-99.99,,,-99.99,meteohub,2013-09-01 22:12:00,
2013-09-01 18:17:00,81.0,72.0,29.99,NE,45,11.0,-999.0,74,-99.99,,,-99.99,meteohub,2013-09-01 22:17:00,
2013-09-01 18:22:00,80.1,72.5,29.99,SE,135,9.0,-999.0,78,-99.99,,,-99.99,meteohub,2013-09-01 22:22:00,
2013-09-01 18:27:00,80.1,73.4,29.99,NE,45,9.0,-999.0,80,-99.99,,,-99.99,meteohub,2013-09-01 22:27:00,
2013-09-01 18:32:00,80.1,73.4,29.99,NE,45,6.0,-999.0,80,-99.99,,,-99.99,meteohub,2013-09-01 22:32:00,
2013-09-01 18:37:00,80.1,74.1,30.00,SE,135,13.0,-999.0,82,-99.99,,,-99.99,meteohub,2013-09-01 22:37:00,
2013-09-01 18:42:00,80.1,74.8,30.00,SE,135,9.0,-999.0,84,-99.99,,,-99.99,meteohub,2013-09-01 22:42:00,
2013-09-01 18:47:00,80.1,74.8,29.99,SE,135,10.0,-999.0,84,-99.99,,,-99.99,meteohub,2013-09-01 22:47:00,
2013-09-01 18:52:00,81.0,71.1,29.99,SE,135,9.0,-999.0,72,-99.99,,,-99.99,meteohub,2013-09-01 22:52:00,
2013-09-01 18:57:00,81.0,71.4,29.99,SE,135,9.0,-999.0,73,-99.99,,,-99.99,meteohub,2013-09-01 22:57:00,
2013-09-01 19:02:00,81.0,71.4,30.00,SE,135,8.0,-999.0,73,-99.99,,,-99.99,meteohub,2013-09-01 23:02:00,
2013-09-01 19:07:00,81.0,72.3,30.00,SE,135,7.0,-999.0,75,-99.99,,,-99.99,meteohub,2013-09-01 23:07:00,
2013-09-01 19:12:00,81.0,71.1,30.00,SSE,157,6.0,-999.0,72,-99.99,,,-99.99,meteohub,2013-09-01 23:12:00,
2013-09-01 19:17:00,81.0,72.0,30.00,SE,135,5.0,-999.0,74,-99.99,,,-99.99,meteohub,2013-09-01 23:17:00,
2013-09-01 19:22:00,81.0,73.8,30.00,SE,135,7.0,-999.0,79,-99.99,,,-99.99,meteohub,2013-09-01 23:22:00,
2013-09-01 19:27:00,81.0,72.7,30.00,SE,135,4.0,-999.0,76,-99.99,,,-99.99,meteohub,2013-09-01 23:27:00,
2013-09-01 19:32:00,81.0,72.7,30.00,NE,45,3.0,-999.0,76,-99.99,,,-99.99,meteohub,2013-09-01 23:32:00,
2013-09-01 19:37:00,80.1,71.8,30.00,NE,45,3.0,-999.0,76,-99.99,,,-99.99,meteohub,2013-09-01 23:37:00,
2013-09-01 19:42:00,80.1,72.5,30.00,NE,45,7.0,-999.0,78,-99.99,,,-99.99,meteohub,2013-09-01 23:42:00,
2013-09-01 19:47:00,80.1,73.0,30.00,NE,45,4.0,-999.0,79,-99.99,,,-99.99,meteohub,2013-09-01 23:47:00,
2013-09-01 19:52:00,80.1,73.0,30.00,NE,45,4.0,-999.0,79,-99.99,,,-99.99,meteohub,2013-09-01 23:52:00,
2013-09-01 19:57:00,80.1,74.1,30.00,SE,135,8.0,-999.0,82,-99.99,,,-99.99,meteohub,2013-09-01 23:57:00,
2013-09-01 20:02:00,80.1,73.4,30.00,SE,135,8.0,-999.0,80,-99.99,,,-99.99,meteohub,2013-09-02 00:02:00,
2013-09-01 20:07:00,79.0,72.7,30.00,NE,45,7.0,-999.0,81,-99.99,,,-99.99,meteohub,2013-09-02 00:07:00,
2013-09-01 20:12:00,79.0,73.4,30.00,SE,135,6.0,-999.0,83,-99.99,,,0.00,meteohub,2013-09-02 00:12:00,
2013-09-01 20:17:00,79.0,74.8,30.00,SE,135,7.0,-999.0,87,-99.99,,,-99.99,meteohub,2013-09-02 00:17:00,
2013-09-01 20:23:00,79.0,73.4,30.00,SE,135,11.0,-999.0,83,-99.99,,,-99.99,meteohub,2013-09-02 00:23:00,
2013-09-01 20:28:00,80.1,75.2,30.00,SE,135,7.0,-999.0,85,-99.99,,,-99.99,meteohub,2013-09-02 00:28:00,
2013-09-01 20:33:00,80.1,74.8,30.00,NE,45,7.0,-999.0,84,-99.99,,,0.00,meteohub,2013-09-02 00:33:00,
2013-09-01 20:38:00,79.0,74.1,30.00,NE,45,7.0,-999.0,85,-99.99,,,-99.99,meteohub,2013-09-02 00:38:00,
2013-09-01 20:43:00,79.0,74.5,30.00,NE,45,4.0,-999.0,86,-99.99,,,0.00,meteohub,2013-09-02 00:43:00,
2013-09-01 20:48:00,79.0,74.5,29.99,NE,45,6.0,-999.0,86,-99.99,,,0.00,meteohub,2013-09-02 00:48:00,
2013-09-01 20:53:00,79.0,76.5,29.99,SE,135,9.0,-999.0,92,-99.99,,,-99.99,meteohub,2013-09-02 00:53:00,
2013-09-01 20:58:00,79.0,75.2,29.99,SE,135,8.0,-999.0,88,-99.99,,,-99.99,meteohub,2013-09-02 00:58:00,
2013-09-01 21:03:00,79.0,75.2,30.00,NE,45,7.0,-999.0,88,-99.99,,,0.00,meteohub,2013-09-02 01:03:00,
2013-09-01 21:08:00,79.0,75.2,30.00,NE,45,3.0,-999.0,88,-99.99,,,0.00,meteohub,2013-09-02 01:08:00,
2013-09-01 21:13:00,78.1,75.9,30.01,NE,45,0.0,-999.0,93,-99.99,,,-99.99,meteohub,2013-09-02 01:13:00,
2013-09-01 21:19:00,78.1,74.5,30.01,NE,45,2.0,-999.0,89,-99.99,,,0.00,meteohub,2013-09-02 01:19:00,
2013-09-01 21:24:00,78.1,74.5,30.01,NE,45,3.0,-999.0,89,-99.99,,,-99.99,meteohub,2013-09-02 01:24:00,
2013-09-01 21:29:00,78.1,74.8,30.01,NE,45,6.0,-999.0,90,-99.99,,,-99.99,meteohub,2013-09-02 01:29:00,
2013-09-01 21:34:00,78.1,74.8,30.01,NE,45,1.0,-999.0,90,-99.99,,,-99.99,meteohub,2013-09-02 01:34:00,
2013-09-01 21:39:00,78.1,74.8,30.01,NE,45,3.0,-999.0,90,-99.99,,,-99.99,meteohub,2013-09-02 01:39:00,
2013-09-01 21:44:00,78.1,74.8,30.01,NE,45,3.0,-999.0,90,-99.99,,,-99.99,meteohub,2013-09-02 01:44:00,
2013-09-01 21:49:00,78.1,76.5,30.01,NE,45,6.0,-999.0,95,-99.99,,,0.00,meteohub,2013-09-02 01:49:00,
2013-09-01 21:54:00,79.0,76.5,30.01,SE,135,8.0,-999.0,92,-99.99,,,-99.99,meteohub,2013-09-02 01:54:00,
2013-09-01 21:59:00,79.0,76.5,30.01,SE,135,5.0,-999.0,92,-99.99,,,-99.99,meteohub,2013-09-02 01:59:00,
2013-09-01 22:05:00,78.1,75.6,30.01,NE,45,5.0,-999.0,92,-99.99,,,0.00,meteohub,2013-09-02 02:05:00,
2013-09-01 22:10:00,78.1,77.2,30.01,NE,45,3.0,-999.0,97,-99.99,,,-99.99,meteohub,2013-09-02 02:10:00,
2013-09-01 22:15:00,78.1,75.6,30.01,NE,45,3.0,-999.0,92,-99.99,,,0.00,meteohub,2013-09-02 02:15:00,
2013-09-01 22:20:00,78.1,75.9,30.01,NE,45,1.0,-999.0,93,-99.99,,,-99.99,meteohub,2013-09-02 02:20:00,
2013-09-01 22:25:00,78.1,75.9,30.03,NE,45,3.0,-999.0,93,-99.99,,,-99.99,meteohub,2013-09-02 02:25:00,
2013-09-01 22:30:00,78.1,75.9,30.03,NE,45,3.0,-999.0,93,-99.99,,,-99.99,meteohub,2013-09-02 02:30:00,
2013-09-01 22:35:00,78.1,75.9,30.03,NE,45,2.0,-999.0,93,-99.99,,,-99.99,meteohub,2013-09-02 02:35:00,
2013-09-01 22:40:00,78.1,75.9,30.03,NE,45,1.0,-999.0,93,-99.99,,,-99.99,meteohub,2013-09-02 02:40:00,
2013-09-01 22:45:00,78.1,77.5,30.03,NE,45,4.0,-999.0,98,-99.99,,,-99.99,meteohub,2013-09-02 02:45:00,
2013-09-01 22:50:00,78.1,75.9,30.03,NE,45,6.0,-999.0,93,-99.99,,,-99.99,meteohub,2013-09-02 02:50:00,
2013-09-01 22:55:00,78.1,75.6,30.03,NE,45,3.0,-999.0,92,-99.99,,,-99.99,meteohub,2013-09-02 02:55:00,
2013-09-01 23:01:00,78.1,75.6,30.03,NE,45,6.0,-999.0,92,-99.99,,,-99.99,meteohub,2013-09-02 03:01:00,
2013-09-01 23:06:00,77.0,76.1,30.03,NE,45,4.0,-999.0,97,-99.99,,,-99.99,meteohub,2013-09-02 03:06:00,
2013-09-01 23:11:00,78.1,75.6,30.03,NE,45,2.0,-999.0,92,-99.99,,,-99.99,meteohub,2013-09-02 03:11:00,
2013-09-01 23:16:00,78.1,75.6,30.03,SE,135,0.0,-999.0,92,-99.99,,,-99.99,meteohub,2013-09-02 03:16:00,
2013-09-01 23:21:00,78.1,75.6,30.03,NE,45,7.0,-999.0,92,-99.99,,,-99.99,meteohub,2013-09-02 03:21:00,
2013-09-01 23:26:00,78.1,75.6,30.03,NE,45,4.0,-999.0,92,-99.99,,,-99.99,meteohub,2013-09-02 03:26:00,
2013-09-01 23:31:00,78.1,75.6,30.03,NE,45,1.0,-999.0,92,-99.99,,,-99.99,meteohub,2013-09-02 03:31:00,
2013-09-01 23:36:00,78.1,75.9,30.04,NE,45,1.0,-999.0,93,-99.99,,,-99.99,meteohub,2013-09-02 03:36:00,
2013-09-01 23:41:00,78.1,75.9,30.04,NE,45,4.0,-999.0,93,-99.99,,,-99.99,meteohub,2013-09-02 03:41:00,
2013-09-01 23:46:00,78.1,75.9,30.04,NE,45,2.0,-999.0,93,-99.99,,,-99.99,meteohub,2013-09-02 03:46:00,
2013-09-01 23:52:00,78.1,75.9,30.04,NE,45,4.0,-999.0,93,-99.99,,,-99.99,meteohub,2013-09-02 03:52:00,
2013-09-01 23:57:00,78.1,75.9,30.04,NE,45,2.0,-999.0,93,-99.99,,,-99.99,meteohub,2013-09-02 03:57:00,